Hana — 2BCV4 — position and weather

sailwx.info

Track history (hours):
 
Tides and Currents Weather Stations Pressure Air Temp Water Temp Dewpoint Dewpoint Depression Visibility Wind Speed Wind Dir Waves Ship Positions

Hana

Last reported at 2015-May-13 10:14 UTC. Time now 2015-May-24 05:16 UTC.
Position N 43°53' E 008°01'.
Warning: this ship's position is 10 days out of date.

Length 43 m; draft 2.9 m.

Type: Pleasure craft. MMSI: 235065022.

Date/timePositionNaut miles runAvg speedWind from/ knotsBaromVisibWave heightAir tempDewpointWater temp
2015-May-13 10:14N 43°53' E 008°01'0 0.0
2015-May-13 09:14N 43°53' E 008°01'0 0.0
2015-May-13 08:20N 43°53' E 008°01'0 0.0
2015-May-12 15:32N 43°53' E 008°01'0 0.0
2015-May-12 14:32N 43°53' E 008°01'0 0.0
2015-May-12 13:32N 43°53' E 008°01'0 0.0
2015-May-12 12:20N 43°53' E 008°01'0 0.0
2015-May-12 11:32N 43°53' E 008°01'0 0.0
2015-May-12 10:26N 43°53' E 008°01'0 0.0
2015-May-12 09:32N 43°53' E 008°01'0 0.0
2015-May-12 04:32N 43°53' E 008°01'0 0.0
2015-May-12 02:26N 43°53' E 008°01'0 0.0
2015-May-12 01:32N 43°53' E 008°01'0 0.0
2015-May-12 00:08N 43°53' E 008°01'0 0.0
2015-May-11 22:32N 43°53' E 008°01'0 0.0
2015-May-11 21:23N 43°53' E 008°01'0 0.0
2015-May-11 20:29N 43°53' E 008°01'0 0.0
2015-May-11 19:14N 43°53' E 008°01'0 0.0
2015-May-11 18:32N 43°53' E 008°01'0 0.0
2015-May-11 17:14N 43°53' E 008°01'0 0.0
2015-May-11 13:32N 43°53' E 008°01'0 0.0
2015-May-11 12:17N 43°53' E 008°01'0 0.0
2015-May-11 11:33N 43°53' E 008°01'10 9.4
2015-May-11 10:31N 43°47' E 008°12'7 7.4
2015-May-11 09:33N 43°43' E 008°20'1211.7
2015-May-11 08:33N 43°36' E 008°33'1211.6
2015-May-11 07:32N 43°30' E 008°47'1211.7
2015-May-11 06:33N 43°23' E 009°00'1212.0
2015-May-11 05:33N 43°16' E 009°13'1211.9
2015-May-11 04:33N 43°09' E 009°26'1211.9
2015-May-11 03:31N 43°01' E 009°40'1312.1
2015-May-11 02:28N 42°52' E 009°52'1112.1
2015-May-11 01:33N 42°44' E 010°03'1412.1
2015-May-11 00:24N 42°36' E 010°17'2812.0
2015-May-10 22:04N 42°19' E 010°48'11411.5
2015-May-10 12:10N 41°12' E 012°51'3211.4
2015-May-10 09:20N 40°52' E 013°25'911.8
2015-May-10 08:33N 40°46' E 013°35'1211.7
2015-May-10 07:33N 40°38' E 013°47'1611.5
2015-May-10 06:09N 40°28' E 014°03'711.1
2015-May-10 05:32N 40°23' E 014°09'1411.1
2015-May-10 04:13N 40°12' E 014°21'810.8
2015-May-10 03:28N 40°05' E 014°27'431 9.2
2015-May-08 04:31N 37°49' E 023°12'7 6.7
2015-May-08 03:32N 37°43' E 023°17'5 5.0
2015-May-08 02:33N 37°40' E 023°21'6 5.8
2015-May-08 01:33N 37°39' E 023°28'9 9.1
2015-May-08 00:33N 37°39' E 023°40'  
Track history (hours):
 
Tides and Currents Weather Stations Pressure Air Temp Water Temp Dewpoint Dewpoint Depression Visibility Wind Speed Wind Dir Waves Ship Positions

Hana

Last reported at 2015-May-13 10:14 UTC. Time now 2015-May-24 05:16 UTC.
Position N 43°53' E 008°01'.
Warning: this ship's position is 10 days out of date.

Length 43 m; draft 2.9 m.

Type: Pleasure craft. MMSI: 235065022.

Date/timePositionNaut miles runAvg speedWind from/ knotsBaromVisibWave heightAir tempDewpointWater temp
2015-May-13 10:14N 43°53' E 008°01'0 0.0
2015-May-13 09:14N 43°53' E 008°01'0 0.0
2015-May-13 08:20N 43°53' E 008°01'0 0.0
2015-May-12 15:32N 43°53' E 008°01'0 0.0
2015-May-12 14:32N 43°53' E 008°01'0 0.0
2015-May-12 13:32N 43°53' E 008°01'0 0.0
2015-May-12 12:20N 43°53' E 008°01'0 0.0
2015-May-12 11:32N 43°53' E 008°01'0 0.0
2015-May-12 10:26N 43°53' E 008°01'0 0.0
2015-May-12 09:32N 43°53' E 008°01'0 0.0
2015-May-12 04:32N 43°53' E 008°01'0 0.0
2015-May-12 02:26N 43°53' E 008°01'0 0.0
2015-May-12 01:32N 43°53' E 008°01'0 0.0
2015-May-12 00:08N 43°53' E 008°01'0 0.0
2015-May-11 22:32N 43°53' E 008°01'0 0.0
2015-May-11 21:23N 43°53' E 008°01'0 0.0
2015-May-11 20:29N 43°53' E 008°01'0 0.0
2015-May-11 19:14N 43°53' E 008°01'0 0.0
2015-May-11 18:32N 43°53' E 008°01'0 0.0
2015-May-11 17:14N 43°53' E 008°01'0 0.0
2015-May-11 13:32N 43°53' E 008°01'0 0.0
2015-May-11 12:17N 43°53' E 008°01'0 0.0
2015-May-11 11:33N 43°53' E 008°01'10 9.4
2015-May-11 10:31N 43°47' E 008°12'7 7.4
2015-May-11 09:33N 43°43' E 008°20'1211.7
2015-May-11 08:33N 43°36' E 008°33'1211.6
2015-May-11 07:32N 43°30' E 008°47'1211.7
2015-May-11 06:33N 43°23' E 009°00'1212.0
2015-May-11 05:33N 43°16' E 009°13'1211.9
2015-May-11 04:33N 43°09' E 009°26'1211.9
2015-May-11 03:31N 43°01' E 009°40'1312.1
2015-May-11 02:28N 42°52' E 009°52'1112.1
2015-May-11 01:33N 42°44' E 010°03'1412.1
2015-May-11 00:24N 42°36' E 010°17'2812.0
2015-May-10 22:04N 42°19' E 010°48'11411.5
2015-May-10 12:10N 41°12' E 012°51'3211.4
2015-May-10 09:20N 40°52' E 013°25'911.8
2015-May-10 08:33N 40°46' E 013°35'1211.7
2015-May-10 07:33N 40°38' E 013°47'1611.5
2015-May-10 06:09N 40°28' E 014°03'711.1
2015-May-10 05:32N 40°23' E 014°09'1411.1
2015-May-10 04:13N 40°12' E 014°21'810.8
2015-May-10 03:28N 40°05' E 014°27'431 9.2
2015-May-08 04:31N 37°49' E 023°12'7 6.7
2015-May-08 03:32N 37°43' E 023°17'5 5.0
2015-May-08 02:33N 37°40' E 023°21'6 5.8
2015-May-08 01:33N 37°39' E 023°28'9 9.1
2015-May-08 00:33N 37°39' E 023°40'  

Dump ship's entire track history